sensor_id;sensor_type;location;lat;lon;timestamp;P1;durP1;ratioP1;P2;durP2;ratioP2
80852;SDS011;70270;43.434;28.338;2023-10-08T00:01:53;12.35;;;5.05;;
80852;SDS011;70270;43.434;28.338;2023-10-08T00:07:24;11.80;;;4.82;;
80852;SDS011;70270;43.434;28.338;2023-10-08T00:10:09;11.70;;;5.35;;
80852;SDS011;70270;43.434;28.338;2023-10-08T00:12:53;17.75;;;5.55;;
80852;SDS011;70270;43.434;28.338;2023-10-08T00:15:42;14.27;;;5.25;;
80852;SDS011;70270;43.434;28.338;2023-10-08T00:18:37;12.80;;;5.65;;
80852;SDS011;70270;43.434;28.338;2023-10-08T00:21:25;15.73;;;5.63;;
80852;SDS011;70270;43.434;28.338;2023-10-08T00:24:15;11.38;;;4.60;;
80852;SDS011;70270;43.434;28.338;2023-10-08T00:27:00;9.10;;;4.65;;
80852;SDS011;70270;43.434;28.338;2023-10-08T00:29:44;15.68;;;6.40;;
80852;SDS011;70270;43.434;28.338;2023-10-08T00:32:29;13.98;;;5.50;;
80852;SDS011;70270;43.434;28.338;2023-10-08T00:35:14;14.98;;;5.43;;
80852;SDS011;70270;43.434;28.338;2023-10-08T00:38:07;13.68;;;5.35;;
80852;SDS011;70270;43.434;28.338;2023-10-08T00:41:00;13.48;;;5.78;;
80852;SDS011;70270;43.434;28.338;2023-10-08T00:43:44;14.55;;;5.55;;
80852;SDS011;70270;43.434;28.338;2023-10-08T00:46:29;10.73;;;5.35;;
80852;SDS011;70270;43.434;28.338;2023-10-08T00:49:25;11.10;;;4.90;;
80852;SDS011;70270;43.434;28.338;2023-10-08T00:52:38;14.52;;;5.63;;
80852;SDS011;70270;43.434;28.338;2023-10-08T00:55:41;12.15;;;5.38;;
80852;SDS011;70270;43.434;28.338;2023-10-08T00:58:30;13.43;;;5.10;;
80852;SDS011;70270;43.434;28.338;2023-10-08T01:01:17;12.90;;;5.20;;
80852;SDS011;70270;43.434;28.338;2023-10-08T01:04:04;14.65;;;5.28;;
80852;SDS011;70270;43.434;28.338;2023-10-08T01:06:57;11.35;;;5.55;;
80852;SDS011;70270;43.434;28.338;2023-10-08T01:10:00;12.63;;;5.32;;
80852;SDS011;70270;43.434;28.338;2023-10-08T01:12:49;10.88;;;4.82;;
80852;SDS011;70270;43.434;28.338;2023-10-08T01:15:43;11.25;;;5.20;;
80852;SDS011;70270;43.434;28.338;2023-10-08T01:18:29;10.95;;;4.60;;
80852;SDS011;70270;43.434;28.338;2023-10-08T01:21:16;8.38;;;4.47;;
80852;SDS011;70270;43.434;28.338;2023-10-08T01:24:15;19.30;;;4.93;;
80852;SDS011;70270;43.434;28.338;2023-10-08T01:27:01;13.07;;;4.97;;
80852;SDS011;70270;43.434;28.338;2023-10-08T01:29:49;16.30;;;5.07;;
80852;SDS011;70270;43.434;28.338;2023-10-08T01:32:37;8.80;;;4.38;;
80852;SDS011;70270;43.434;28.338;2023-10-08T01:35:21;10.10;;;4.65;;
80852;SDS011;70270;43.434;28.338;2023-10-08T01:38:07;11.73;;;5.43;;
80852;SDS011;70270;43.434;28.338;2023-10-08T01:40:57;12.85;;;4.82;;
80852;SDS011;70270;43.434;28.338;2023-10-08T01:43:47;12.88;;;5.97;;
80852;SDS011;70270;43.434;28.338;2023-10-08T01:46:34;15.02;;;5.85;;
80852;SDS011;70270;43.434;28.338;2023-10-08T01:49:18;11.02;;;5.22;;
80852;SDS011;70270;43.434;28.338;2023-10-08T01:52:06;9.30;;;4.65;;
80852;SDS011;70270;43.434;28.338;2023-10-08T01:55:01;13.52;;;5.25;;
80852;SDS011;70270;43.434;28.338;2023-10-08T01:57:47;10.18;;;4.53;;
80852;SDS011;70270;43.434;28.338;2023-10-08T02:00:33;11.05;;;5.22;;
80852;SDS011;70270;43.434;28.338;2023-10-08T02:03:18;21.60;;;5.88;;
80852;SDS011;70270;43.434;28.338;2023-10-08T02:06:03;11.95;;;5.00;;
80852;SDS011;70270;43.434;28.338;2023-10-08T02:08:50;13.32;;;5.63;;
80852;SDS011;70270;43.434;28.338;2023-10-08T02:11:42;11.68;;;5.10;;
80852;SDS011;70270;43.434;28.338;2023-10-08T02:14:27;10.30;;;5.78;;
80852;SDS011;70270;43.434;28.338;2023-10-08T02:17:15;10.30;;;5.15;;
80852;SDS011;70270;43.434;28.338;2023-10-08T02:20:01;12.30;;;4.90;;
80852;SDS011;70270;43.434;28.338;2023-10-08T02:22:49;12.43;;;5.10;;
80852;SDS011;70270;43.434;28.338;2023-10-08T02:25:33;13.07;;;4.75;;
80852;SDS011;70270;43.434;28.338;2023-10-08T02:28:21;12.48;;;5.55;;
80852;SDS011;70270;43.434;28.338;2023-10-08T02:31:08;10.63;;;4.88;;
80852;SDS011;70270;43.434;28.338;2023-10-08T02:33:53;12.88;;;5.35;;
80852;SDS011;70270;43.434;28.338;2023-10-08T02:36:37;13.77;;;5.00;;
80852;SDS011;70270;43.434;28.338;2023-10-08T02:39:26;12.48;;;5.00;;
80852;SDS011;70270;43.434;28.338;2023-10-08T02:42:12;12.65;;;4.95;;
80852;SDS011;70270;43.434;28.338;2023-10-08T02:44:57;9.00;;;4.65;;
80852;SDS011;70270;43.434;28.338;2023-10-08T02:47:44;17.30;;;5.40;;
80852;SDS011;70270;43.434;28.338;2023-10-08T02:50:29;12.93;;;5.47;;
80852;SDS011;70270;43.434;28.338;2023-10-08T02:53:16;11.82;;;5.13;;
80852;SDS011;70270;43.434;28.338;2023-10-08T02:56:05;10.65;;;5.50;;
80852;SDS011;70270;43.434;28.338;2023-10-08T02:58:56;9.57;;;5.05;;
80852;SDS011;70270;43.434;28.338;2023-10-08T03:01:41;12.57;;;5.45;;
80852;SDS011;70270;43.434;28.338;2023-10-08T03:04:25;11.02;;;5.70;;
80852;SDS011;70270;43.434;28.338;2023-10-08T03:07:15;11.32;;;5.45;;
80852;SDS011;70270;43.434;28.338;2023-10-08T03:10:07;11.07;;;5.60;;
80852;SDS011;70270;43.434;28.338;2023-10-08T03:13:02;12.35;;;5.55;;
80852;SDS011;70270;43.434;28.338;2023-10-08T03:15:51;12.85;;;6.45;;
80852;SDS011;70270;43.434;28.338;2023-10-08T03:18:45;11.18;;;6.30;;
80852;SDS011;70270;43.434;28.338;2023-10-08T03:21:37;12.50;;;5.35;;
80852;SDS011;70270;43.434;28.338;2023-10-08T03:24:22;14.02;;;4.85;;
80852;SDS011;70270;43.434;28.338;2023-10-08T03:27:13;13.50;;;6.63;;
80852;SDS011;70270;43.434;28.338;2023-10-08T03:30:05;13.15;;;5.65;;
80852;SDS011;70270;43.434;28.338;2023-10-08T03:32:50;13.13;;;6.72;;
80852;SDS011;70270;43.434;28.338;2023-10-08T03:35:42;14.95;;;6.00;;
80852;SDS011;70270;43.434;28.338;2023-10-08T03:38:27;15.30;;;6.25;;
80852;SDS011;70270;43.434;28.338;2023-10-08T03:41:12;13.73;;;6.45;;
80852;SDS011;70270;43.434;28.338;2023-10-08T03:44:00;16.23;;;6.65;;
80852;SDS011;70270;43.434;28.338;2023-10-08T03:46:56;15.27;;;5.95;;
80852;SDS011;70270;43.434;28.338;2023-10-08T03:49:41;15.88;;;5.78;;
80852;SDS011;70270;43.434;28.338;2023-10-08T03:52:30;14.60;;;5.40;;
80852;SDS011;70270;43.434;28.338;2023-10-08T03:55:14;12.48;;;5.55;;
80852;SDS011;70270;43.434;28.338;2023-10-08T03:58:10;10.52;;;5.22;;
80852;SDS011;70270;43.434;28.338;2023-10-08T04:00:56;14.00;;;5.72;;
80852;SDS011;70270;43.434;28.338;2023-10-08T04:03:52;12.65;;;5.32;;
80852;SDS011;70270;43.434;28.338;2023-10-08T04:06:37;12.18;;;6.05;;
80852;SDS011;70270;43.434;28.338;2023-10-08T04:09:31;15.65;;;5.72;;
80852;SDS011;70270;43.434;28.338;2023-10-08T04:12:16;10.63;;;5.75;;
80852;SDS011;70270;43.434;28.338;2023-10-08T04:15:02;14.55;;;5.95;;
80852;SDS011;70270;43.434;28.338;2023-10-08T04:17:56;13.93;;;5.82;;
80852;SDS011;70270;43.434;28.338;2023-10-08T04:20:41;12.57;;;5.60;;
80852;SDS011;70270;43.434;28.338;2023-10-08T04:23:44;10.02;;;4.65;;
80852;SDS011;70270;43.434;28.338;2023-10-08T04:26:30;12.90;;;4.93;;
80852;SDS011;70270;43.434;28.338;2023-10-08T04:29:16;11.93;;;5.50;;
80852;SDS011;70270;43.434;28.338;2023-10-08T04:32:06;12.20;;;5.30;;
80852;SDS011;70270;43.434;28.338;2023-10-08T04:34:59;10.63;;;5.63;;
80852;SDS011;70270;43.434;28.338;2023-10-08T04:37:44;12.30;;;5.68;;
80852;SDS011;70270;43.434;28.338;2023-10-08T04:40:35;63.58;;;30.50;;
80852;SDS011;70270;43.434;28.338;2023-10-08T04:43:32;13.70;;;5.78;;
80852;SDS011;70270;43.434;28.338;2023-10-08T04:46:17;11.77;;;5.65;;
80852;SDS011;70270;43.434;28.338;2023-10-08T04:49:18;12.00;;;5.22;;
80852;SDS011;70270;43.434;28.338;2023-10-08T04:52:12;10.90;;;5.28;;
80852;SDS011;70270;43.434;28.338;2023-10-08T04:55:00;13.43;;;7.47;;
80852;SDS011;70270;43.434;28.338;2023-10-08T04:57:56;17.15;;;7.82;;
80852;SDS011;70270;43.434;28.338;2023-10-08T05:00:42;13.43;;;6.15;;
80852;SDS011;70270;43.434;28.338;2023-10-08T05:03:37;11.88;;;6.10;;
80852;SDS011;70270;43.434;28.338;2023-10-08T05:06:33;8.25;;;3.92;;
80852;SDS011;70270;43.434;28.338;2023-10-08T05:09:18;10.82;;;5.43;;
80852;SDS011;70270;43.434;28.338;2023-10-08T05:12:06;11.68;;;6.00;;
80852;SDS011;70270;43.434;28.338;2023-10-08T05:15:12;13.25;;;5.43;;
80852;SDS011;70270;43.434;28.338;2023-10-08T05:17:56;11.45;;;4.78;;
80852;SDS011;70270;43.434;28.338;2023-10-08T05:20:42;10.48;;;4.80;;
80852;SDS011;70270;43.434;28.338;2023-10-08T05:23:33;10.77;;;5.80;;
80852;SDS011;70270;43.434;28.338;2023-10-08T05:26:40;10.90;;;4.90;;
80852;SDS011;70270;43.434;28.338;2023-10-08T05:29:33;12.55;;;4.70;;
80852;SDS011;70270;43.434;28.338;2023-10-08T05:32:36;14.73;;;5.28;;
80852;SDS011;70270;43.434;28.338;2023-10-08T05:35:44;9.55;;;5.50;;
80852;SDS011;70270;43.434;28.338;2023-10-08T05:38:31;11.75;;;5.32;;
80852;SDS011;70270;43.434;28.338;2023-10-08T05:41:22;12.25;;;6.70;;
80852;SDS011;70270;43.434;28.338;2023-10-08T05:44:14;13.88;;;5.25;;
80852;SDS011;70270;43.434;28.338;2023-10-08T05:47:08;13.57;;;6.22;;
80852;SDS011;70270;43.434;28.338;2023-10-08T05:50:10;11.43;;;5.65;;
80852;SDS011;70270;43.434;28.338;2023-10-08T05:53:00;10.43;;;4.53;;
80852;SDS011;70270;43.434;28.338;2023-10-08T05:56:05;11.75;;;5.28;;
80852;SDS011;70270;43.434;28.338;2023-10-08T05:59:00;11.93;;;5.63;;
80852;SDS011;70270;43.434;28.338;2023-10-08T06:01:58;14.48;;;7.32;;
80852;SDS011;70270;43.434;28.338;2023-10-08T06:07:54;13.02;;;5.18;;
80852;SDS011;70270;43.434;28.338;2023-10-08T06:10:39;11.00;;;4.75;;
80852;SDS011;70270;43.434;28.338;2023-10-08T06:13:23;10.38;;;4.75;;
80852;SDS011;70270;43.434;28.338;2023-10-08T06:16:14;12.65;;;4.63;;
80852;SDS011;70270;43.434;28.338;2023-10-08T06:19:15;12.88;;;4.85;;
80852;SDS011;70270;43.434;28.338;2023-10-08T06:21:59;12.32;;;4.60;;
80852;SDS011;70270;43.434;28.338;2023-10-08T06:24:48;13.70;;;5.43;;
80852;SDS011;70270;43.434;28.338;2023-10-08T06:27:32;13.55;;;5.05;;
80852;SDS011;70270;43.434;28.338;2023-10-08T06:30:17;14.35;;;4.97;;
80852;SDS011;70270;43.434;28.338;2023-10-08T06:33:01;12.48;;;4.65;;
80852;SDS011;70270;43.434;28.338;2023-10-08T06:35:47;13.18;;;4.90;;
80852;SDS011;70270;43.434;28.338;2023-10-08T06:38:57;14.68;;;5.30;;
80852;SDS011;70270;43.434;28.338;2023-10-08T06:41:43;12.57;;;4.82;;
80852;SDS011;70270;43.434;28.338;2023-10-08T06:44:27;12.02;;;5.10;;
80852;SDS011;70270;43.434;28.338;2023-10-08T06:47:12;9.57;;;4.75;;
80852;SDS011;70270;43.434;28.338;2023-10-08T06:49:59;11.88;;;5.60;;
80852;SDS011;70270;43.434;28.338;2023-10-08T06:52:48;18.85;;;5.93;;
80852;SDS011;70270;43.434;28.338;2023-10-08T06:55:33;18.08;;;4.55;;
80852;SDS011;70270;43.434;28.338;2023-10-08T06:58:23;12.20;;;5.15;;
80852;SDS011;70270;43.434;28.338;2023-10-08T07:01:08;9.32;;;4.90;;
80852;SDS011;70270;43.434;28.338;2023-10-08T07:03:53;12.82;;;4.97;;
80852;SDS011;70270;43.434;28.338;2023-10-08T07:06:47;20.17;;;6.43;;
80852;SDS011;70270;43.434;28.338;2023-10-08T07:09:32;11.73;;;6.40;;
80852;SDS011;70270;43.434;28.338;2023-10-08T07:12:20;16.27;;;7.15;;
80852;SDS011;70270;43.434;28.338;2023-10-08T07:15:08;16.10;;;6.47;;
80852;SDS011;70270;43.434;28.338;2023-10-08T07:17:56;12.45;;;5.93;;
80852;SDS011;70270;43.434;28.338;2023-10-08T07:20:45;12.48;;;4.85;;
80852;SDS011;70270;43.434;28.338;2023-10-08T07:23:29;10.38;;;5.10;;
80852;SDS011;70270;43.434;28.338;2023-10-08T07:26:18;13.27;;;5.63;;
80852;SDS011;70270;43.434;28.338;2023-10-08T07:29:07;10.05;;;5.30;;
80852;SDS011;70270;43.434;28.338;2023-10-08T07:31:52;11.55;;;5.00;;
80852;SDS011;70270;43.434;28.338;2023-10-08T07:34:37;11.70;;;5.35;;
80852;SDS011;70270;43.434;28.338;2023-10-08T07:37:22;14.85;;;5.93;;
80852;SDS011;70270;43.434;28.338;2023-10-08T07:40:07;10.77;;;5.32;;
80852;SDS011;70270;43.434;28.338;2023-10-08T07:42:54;13.43;;;4.78;;
80852;SDS011;70270;43.434;28.338;2023-10-08T07:45:40;12.73;;;5.82;;
80852;SDS011;70270;43.434;28.338;2023-10-08T07:48:29;11.52;;;5.55;;
80852;SDS011;70270;43.434;28.338;2023-10-08T07:51:14;11.63;;;5.32;;
80852;SDS011;70270;43.434;28.338;2023-10-08T07:53:59;15.55;;;5.25;;
80852;SDS011;70270;43.434;28.338;2023-10-08T07:56:43;11.75;;;5.28;;
80852;SDS011;70270;43.434;28.338;2023-10-08T07:59:28;17.67;;;5.40;;
80852;SDS011;70270;43.434;28.338;2023-10-08T08:02:15;12.68;;;5.30;;
80852;SDS011;70270;43.434;28.338;2023-10-08T08:05:01;14.65;;;5.50;;
80852;SDS011;70270;43.434;28.338;2023-10-08T08:07:47;11.13;;;4.90;;
80852;SDS011;70270;43.434;28.338;2023-10-08T08:10:33;12.18;;;5.05;;
80852;SDS011;70270;43.434;28.338;2023-10-08T08:13:22;11.10;;;5.15;;
80852;SDS011;70270;43.434;28.338;2023-10-08T08:16:06;13.65;;;5.03;;
80852;SDS011;70270;43.434;28.338;2023-10-08T08:19:00;7.60;;;4.18;;
80852;SDS011;70270;43.434;28.338;2023-10-08T08:21:45;14.70;;;5.22;;
80852;SDS011;70270;43.434;28.338;2023-10-08T08:24:29;14.77;;;5.07;;
80852;SDS011;70270;43.434;28.338;2023-10-08T08:27:20;11.50;;;4.38;;
80852;SDS011;70270;43.434;28.338;2023-10-08T08:30:16;15.13;;;4.65;;
80852;SDS011;70270;43.434;28.338;2023-10-08T08:33:01;14.55;;;5.20;;
80852;SDS011;70270;43.434;28.338;2023-10-08T08:36:00;16.65;;;4.75;;
80852;SDS011;70270;43.434;28.338;2023-10-08T08:38:45;11.98;;;4.50;;
80852;SDS011;70270;43.434;28.338;2023-10-08T08:41:31;11.60;;;4.40;;
80852;SDS011;70270;43.434;28.338;2023-10-08T08:44:19;9.55;;;4.13;;
80852;SDS011;70270;43.434;28.338;2023-10-08T08:47:09;13.23;;;4.60;;
80852;SDS011;70270;43.434;28.338;2023-10-08T08:50:08;16.25;;;4.90;;
80852;SDS011;70270;43.434;28.338;2023-10-08T08:52:53;11.88;;;4.40;;
80852;SDS011;70270;43.434;28.338;2023-10-08T08:55:38;9.43;;;3.72;;
80852;SDS011;70270;43.434;28.338;2023-10-08T08:58:23;11.70;;;5.03;;
80852;SDS011;70270;43.434;28.338;2023-10-08T09:01:10;10.82;;;5.63;;
80852;SDS011;70270;43.434;28.338;2023-10-08T09:04:04;12.15;;;4.40;;
80852;SDS011;70270;43.434;28.338;2023-10-08T09:06:52;11.50;;;3.92;;
80852;SDS011;70270;43.434;28.338;2023-10-08T09:09:39;12.00;;;4.15;;
80852;SDS011;70270;43.434;28.338;2023-10-08T09:12:23;7.97;;;3.80;;
80852;SDS011;70270;43.434;28.338;2023-10-08T09:15:08;9.45;;;4.45;;
80852;SDS011;70270;43.434;28.338;2023-10-08T09:17:57;10.82;;;4.60;;
80852;SDS011;70270;43.434;28.338;2023-10-08T09:20:44;12.43;;;4.55;;
80852;SDS011;70270;43.434;28.338;2023-10-08T09:23:29;10.90;;;4.85;;
80852;SDS011;70270;43.434;28.338;2023-10-08T09:26:13;10.95;;;4.30;;
80852;SDS011;70270;43.434;28.338;2023-10-08T09:29:00;27.33;;;6.45;;
80852;SDS011;70270;43.434;28.338;2023-10-08T09:34:39;13.95;;;4.40;;
80852;SDS011;70270;43.434;28.338;2023-10-08T09:37:24;12.77;;;5.05;;
80852;SDS011;70270;43.434;28.338;2023-10-08T09:40:12;10.57;;;4.20;;
80852;SDS011;70270;43.434;28.338;2023-10-08T09:43:05;13.15;;;5.13;;
80852;SDS011;70270;43.434;28.338;2023-10-08T09:49:12;11.63;;;5.22;;
80852;SDS011;70270;43.434;28.338;2023-10-08T09:52:06;15.95;;;6.00;;
80852;SDS011;70270;43.434;28.338;2023-10-08T09:54:53;14.40;;;5.65;;
80852;SDS011;70270;43.434;28.338;2023-10-08T09:57:46;14.45;;;4.80;;
80852;SDS011;70270;43.434;28.338;2023-10-08T10:00:31;10.30;;;4.95;;
80852;SDS011;70270;43.434;28.338;2023-10-08T10:03:17;15.43;;;5.15;;
80852;SDS011;70270;43.434;28.338;2023-10-08T10:06:03;11.00;;;5.03;;
80852;SDS011;70270;43.434;28.338;2023-10-08T10:08:55;11.18;;;4.97;;
80852;SDS011;70270;43.434;28.338;2023-10-08T10:11:50;11.55;;;5.38;;
80852;SDS011;70270;43.434;28.338;2023-10-08T10:14:42;9.57;;;4.15;;
80852;SDS011;70270;43.434;28.338;2023-10-08T10:17:28;11.00;;;4.80;;
80852;SDS011;70270;43.434;28.338;2023-10-08T10:20:13;11.35;;;5.28;;
80852;SDS011;70270;43.434;28.338;2023-10-08T10:22:57;14.07;;;4.75;;
80852;SDS011;70270;43.434;28.338;2023-10-08T10:25:42;12.02;;;5.43;;
80852;SDS011;70270;43.434;28.338;2023-10-08T10:28:28;14.60;;;5.43;;
80852;SDS011;70270;43.434;28.338;2023-10-08T10:31:20;10.70;;;5.38;;
80852;SDS011;70270;43.434;28.338;2023-10-08T10:34:08;13.07;;;5.50;;
80852;SDS011;70270;43.434;28.338;2023-10-08T10:36:54;13.95;;;4.78;;
80852;SDS011;70270;43.434;28.338;2023-10-08T10:39:50;8.13;;;4.45;;
80852;SDS011;70270;43.434;28.338;2023-10-08T10:42:37;9.63;;;5.00;;
80852;SDS011;70270;43.434;28.338;2023-10-08T10:45:29;10.57;;;4.15;;
80852;SDS011;70270;43.434;28.338;2023-10-08T10:48:28;8.40;;;3.85;;
80852;SDS011;70270;43.434;28.338;2023-10-08T10:51:19;9.30;;;4.72;;
80852;SDS011;70270;43.434;28.338;2023-10-08T10:54:03;12.13;;;4.82;;
80852;SDS011;70270;43.434;28.338;2023-10-08T10:57:03;12.60;;;4.50;;
80852;SDS011;70270;43.434;28.338;2023-10-08T11:00:03;11.95;;;4.93;;
80852;SDS011;70270;43.434;28.338;2023-10-08T11:03:08;13.70;;;4.72;;
80852;SDS011;70270;43.434;28.338;2023-10-08T11:06:07;11.15;;;4.57;;
80852;SDS011;70270;43.434;28.338;2023-10-08T11:08:59;7.90;;;4.10;;
80852;SDS011;70270;43.434;28.338;2023-10-08T11:11:43;10.65;;;3.65;;
80852;SDS011;70270;43.434;28.338;2023-10-08T11:14:28;13.05;;;4.93;;
80852;SDS011;70270;43.434;28.338;2023-10-08T11:17:13;9.68;;;4.57;;
80852;SDS011;70270;43.434;28.338;2023-10-08T11:19:59;10.50;;;4.53;;
80852;SDS011;70270;43.434;28.338;2023-10-08T11:22:50;13.93;;;5.22;;
80852;SDS011;70270;43.434;28.338;2023-10-08T11:25:37;7.75;;;4.15;;
80852;SDS011;70270;43.434;28.338;2023-10-08T11:28:27;13.95;;;4.70;;
80852;SDS011;70270;43.434;28.338;2023-10-08T11:31:14;9.35;;;4.35;;
80852;SDS011;70270;43.434;28.338;2023-10-08T11:34:03;8.32;;;4.68;;
80852;SDS011;70270;43.434;28.338;2023-10-08T11:36:57;6.75;;;4.05;;
80852;SDS011;70270;43.434;28.338;2023-10-08T11:39:41;8.18;;;4.82;;
80852;SDS011;70270;43.434;28.338;2023-10-08T11:42:29;12.75;;;4.40;;
80852;SDS011;70270;43.434;28.338;2023-10-08T11:45:16;9.00;;;4.38;;
80852;SDS011;70270;43.434;28.338;2023-10-08T11:48:10;12.65;;;4.57;;
80852;SDS011;70270;43.434;28.338;2023-10-08T11:50:57;9.70;;;4.50;;
80852;SDS011;70270;43.434;28.338;2023-10-08T11:53:45;13.60;;;4.70;;
80852;SDS011;70270;43.434;28.338;2023-10-08T11:56:30;11.30;;;4.35;;
80852;SDS011;70270;43.434;28.338;2023-10-08T11:59:16;12.57;;;5.45;;
80852;SDS011;70270;43.434;28.338;2023-10-08T12:02:02;11.77;;;4.63;;
80852;SDS011;70270;43.434;28.338;2023-10-08T12:04:47;14.40;;;4.97;;
80852;SDS011;70270;43.434;28.338;2023-10-08T12:07:31;10.93;;;4.63;;
80852;SDS011;70270;43.434;28.338;2023-10-08T12:10:16;10.70;;;4.35;;
80852;SDS011;70270;43.434;28.338;2023-10-08T12:13:06;12.05;;;4.40;;
80852;SDS011;70270;43.434;28.338;2023-10-08T12:15:51;10.10;;;4.68;;
80852;SDS011;70270;43.434;28.338;2023-10-08T12:18:41;10.82;;;4.18;;
80852;SDS011;70270;43.434;28.338;2023-10-08T12:21:27;11.73;;;5.00;;
80852;SDS011;70270;43.434;28.338;2023-10-08T12:24:15;17.38;;;5.18;;
80852;SDS011;70270;43.434;28.338;2023-10-08T12:27:01;15.63;;;4.32;;
80852;SDS011;70270;43.434;28.338;2023-10-08T12:29:47;11.27;;;5.43;;
80852;SDS011;70270;43.434;28.338;2023-10-08T12:32:31;19.20;;;6.43;;
80852;SDS011;70270;43.434;28.338;2023-10-08T12:35:16;13.80;;;4.28;;
80852;SDS011;70270;43.434;28.338;2023-10-08T12:38:00;12.00;;;4.88;;
80852;SDS011;70270;43.434;28.338;2023-10-08T12:40:45;14.98;;;4.90;;
80852;SDS011;70270;43.434;28.338;2023-10-08T12:43:36;10.77;;;4.10;;
80852;SDS011;70270;43.434;28.338;2023-10-08T12:46:22;9.85;;;3.83;;
80852;SDS011;70270;43.434;28.338;2023-10-08T12:49:09;13.60;;;4.25;;
80852;SDS011;70270;43.434;28.338;2023-10-08T12:51:53;16.55;;;5.18;;
80852;SDS011;70270;43.434;28.338;2023-10-08T12:54:38;14.60;;;4.72;;
80852;SDS011;70270;43.434;28.338;2023-10-08T12:57:30;10.60;;;3.63;;
80852;SDS011;70270;43.434;28.338;2023-10-08T13:00:18;12.15;;;4.40;;
80852;SDS011;70270;43.434;28.338;2023-10-08T13:03:09;9.45;;;3.25;;
80852;SDS011;70270;43.434;28.338;2023-10-08T13:06:10;13.82;;;4.60;;
80852;SDS011;70270;43.434;28.338;2023-10-08T13:08:58;14.48;;;4.32;;
80852;SDS011;70270;43.434;28.338;2023-10-08T13:11:43;14.38;;;3.80;;
80852;SDS011;70270;43.434;28.338;2023-10-08T13:14:29;19.02;;;4.35;;
80852;SDS011;70270;43.434;28.338;2023-10-08T13:17:14;13.68;;;3.75;;
80852;SDS011;70270;43.434;28.338;2023-10-08T13:19:58;16.35;;;4.82;;
80852;SDS011;70270;43.434;28.338;2023-10-08T13:22:43;15.75;;;4.03;;
80852;SDS011;70270;43.434;28.338;2023-10-08T13:25:27;12.13;;;3.30;;
80852;SDS011;70270;43.434;28.338;2023-10-08T13:28:14;16.00;;;4.43;;
80852;SDS011;70270;43.434;28.338;2023-10-08T13:30:59;15.88;;;4.93;;
80852;SDS011;70270;43.434;28.338;2023-10-08T13:33:44;18.40;;;5.22;;
80852;SDS011;70270;43.434;28.338;2023-10-08T13:36:32;17.70;;;5.15;;
80852;SDS011;70270;43.434;28.338;2023-10-08T13:39:17;13.20;;;4.40;;
80852;SDS011;70270;43.434;28.338;2023-10-08T13:42:05;14.05;;;4.15;;
80852;SDS011;70270;43.434;28.338;2023-10-08T13:44:50;14.65;;;4.35;;
80852;SDS011;70270;43.434;28.338;2023-10-08T13:47:35;14.30;;;4.15;;
80852;SDS011;70270;43.434;28.338;2023-10-08T13:50:24;15.93;;;5.07;;
80852;SDS011;70270;43.434;28.338;2023-10-08T13:53:08;16.40;;;5.13;;
80852;SDS011;70270;43.434;28.338;2023-10-08T13:55:52;15.38;;;4.97;;
80852;SDS011;70270;43.434;28.338;2023-10-08T13:58:40;18.40;;;4.25;;
80852;SDS011;70270;43.434;28.338;2023-10-08T14:01:33;12.18;;;4.45;;
80852;SDS011;70270;43.434;28.338;2023-10-08T14:04:19;13.70;;;4.18;;
80852;SDS011;70270;43.434;28.338;2023-10-08T14:07:04;12.35;;;4.60;;
80852;SDS011;70270;43.434;28.338;2023-10-08T14:09:48;17.60;;;4.97;;
80852;SDS011;70270;43.434;28.338;2023-10-08T14:12:34;16.55;;;5.55;;
80852;SDS011;70270;43.434;28.338;2023-10-08T14:15:19;18.08;;;6.35;;
80852;SDS011;70270;43.434;28.338;2023-10-08T14:18:07;18.15;;;5.85;;
80852;SDS011;70270;43.434;28.338;2023-10-08T14:23:38;21.55;;;6.57;;
80852;SDS011;70270;43.434;28.338;2023-10-08T14:26:23;18.10;;;5.75;;
80852;SDS011;70270;43.434;28.338;2023-10-08T14:29:09;25.15;;;6.47;;
80852;SDS011;70270;43.434;28.338;2023-10-08T14:32:01;24.52;;;5.80;;
80852;SDS011;70270;43.434;28.338;2023-10-08T14:34:45;17.85;;;4.95;;
80852;SDS011;70270;43.434;28.338;2023-10-08T14:37:30;23.15;;;5.57;;
80852;SDS011;70270;43.434;28.338;2023-10-08T14:40:36;19.00;;;5.72;;
80852;SDS011;70270;43.434;28.338;2023-10-08T14:43:38;18.10;;;5.03;;
80852;SDS011;70270;43.434;28.338;2023-10-08T14:46:25;21.60;;;5.88;;
80852;SDS011;70270;43.434;28.338;2023-10-08T14:49:11;27.73;;;6.50;;
80852;SDS011;70270;43.434;28.338;2023-10-08T14:51:56;17.17;;;5.40;;
80852;SDS011;70270;43.434;28.338;2023-10-08T14:54:41;18.63;;;5.88;;
80852;SDS011;70270;43.434;28.338;2023-10-08T15:00:11;30.40;;;6.13;;
80852;SDS011;70270;43.434;28.338;2023-10-08T15:02:55;26.95;;;6.10;;
80852;SDS011;70270;43.434;28.338;2023-10-08T15:05:41;22.60;;;4.80;;
80852;SDS011;70270;43.434;28.338;2023-10-08T15:08:25;24.92;;;6.32;;
80852;SDS011;70270;43.434;28.338;2023-10-08T15:11:11;19.23;;;4.85;;
80852;SDS011;70270;43.434;28.338;2023-10-08T15:13:56;28.70;;;6.60;;
80852;SDS011;70270;43.434;28.338;2023-10-08T15:16:41;29.23;;;7.55;;
80852;SDS011;70270;43.434;28.338;2023-10-08T15:19:30;25.60;;;7.20;;
80852;SDS011;70270;43.434;28.338;2023-10-08T15:22:16;27.58;;;6.97;;
80852;SDS011;70270;43.434;28.338;2023-10-08T15:25:00;26.27;;;6.38;;
80852;SDS011;70270;43.434;28.338;2023-10-08T15:27:45;22.45;;;5.88;;
80852;SDS011;70270;43.434;28.338;2023-10-08T15:30:33;35.13;;;7.47;;
80852;SDS011;70270;43.434;28.338;2023-10-08T15:33:22;25.17;;;8.18;;
80852;SDS011;70270;43.434;28.338;2023-10-08T15:36:06;28.15;;;6.75;;
80852;SDS011;70270;43.434;28.338;2023-10-08T15:38:50;25.20;;;5.80;;
80852;SDS011;70270;43.434;28.338;2023-10-08T15:41:36;34.45;;;6.45;;
80852;SDS011;70270;43.434;28.338;2023-10-08T15:44:21;22.40;;;6.50;;
80852;SDS011;70270;43.434;28.338;2023-10-08T15:47:06;24.05;;;6.68;;
80852;SDS011;70270;43.434;28.338;2023-10-08T15:49:53;37.20;;;5.55;;
80852;SDS011;70270;43.434;28.338;2023-10-08T15:52:37;109.03;;;10.60;;
80852;SDS011;70270;43.434;28.338;2023-10-08T15:55:25;57.85;;;7.20;;
80852;SDS011;70270;43.434;28.338;2023-10-08T15:58:09;59.17;;;8.25;;
80852;SDS011;70270;43.434;28.338;2023-10-08T16:00:54;52.05;;;6.78;;
80852;SDS011;70270;43.434;28.338;2023-10-08T16:03:48;53.30;;;7.57;;
80852;SDS011;70270;43.434;28.338;2023-10-08T16:06:32;26.00;;;4.70;;
80852;SDS011;70270;43.434;28.338;2023-10-08T16:09:21;21.85;;;6.13;;
80852;SDS011;70270;43.434;28.338;2023-10-08T16:12:06;24.02;;;4.53;;
80852;SDS011;70270;43.434;28.338;2023-10-08T16:14:51;29.50;;;5.20;;
80852;SDS011;70270;43.434;28.338;2023-10-08T16:17:36;25.75;;;4.90;;
80852;SDS011;70270;43.434;28.338;2023-10-08T16:20:22;25.30;;;4.78;;
80852;SDS011;70270;43.434;28.338;2023-10-08T16:23:09;17.27;;;4.25;;
80852;SDS011;70270;43.434;28.338;2023-10-08T16:25:54;12.32;;;3.88;;
80852;SDS011;70270;43.434;28.338;2023-10-08T16:28:39;23.27;;;5.35;;
80852;SDS011;70270;43.434;28.338;2023-10-08T16:31:23;13.48;;;3.90;;
80852;SDS011;70270;43.434;28.338;2023-10-08T16:34:10;16.58;;;3.90;;
80852;SDS011;70270;43.434;28.338;2023-10-08T16:37:00;14.98;;;3.50;;
80852;SDS011;70270;43.434;28.338;2023-10-08T16:39:45;15.18;;;3.67;;
80852;SDS011;70270;43.434;28.338;2023-10-08T16:42:30;15.20;;;3.22;;
80852;SDS011;70270;43.434;28.338;2023-10-08T16:45:15;26.35;;;4.03;;